sensor_id;sensor_type;location;lat;lon;timestamp;P1;durP1;ratioP1;P2;durP2;ratioP2
44139;SDS011;29803;51.048;4.686;2023-03-22T00:00:04;28.75;;;9.52;;
44139;SDS011;29803;51.048;4.686;2023-03-22T00:02:35;23.65;;;9.43;;
44139;SDS011;29803;51.048;4.686;2023-03-22T00:05:06;24.80;;;10.30;;
44139;SDS011;29803;51.048;4.686;2023-03-22T00:07:37;25.00;;;10.02;;
44139;SDS011;29803;51.048;4.686;2023-03-22T00:10:10;34.97;;;13.73;;
44139;SDS011;29803;51.048;4.686;2023-03-22T00:12:40;24.85;;;10.30;;
44139;SDS011;29803;51.048;4.686;2023-03-22T00:15:11;25.00;;;10.38;;
44139;SDS011;29803;51.048;4.686;2023-03-22T00:17:41;28.20;;;10.82;;
44139;SDS011;29803;51.048;4.686;2023-03-22T00:20:13;28.45;;;11.70;;
44139;SDS011;29803;51.048;4.686;2023-03-22T00:22:44;19.63;;;9.82;;
44139;SDS011;29803;51.048;4.686;2023-03-22T00:25:15;28.52;;;11.15;;
44139;SDS011;29803;51.048;4.686;2023-03-22T00:27:46;27.95;;;11.20;;
44139;SDS011;29803;51.048;4.686;2023-03-22T00:30:16;22.70;;;10.88;;
44139;SDS011;29803;51.048;4.686;2023-03-22T00:32:47;22.33;;;11.13;;
44139;SDS011;29803;51.048;4.686;2023-03-22T00:35:17;28.73;;;11.60;;
44139;SDS011;29803;51.048;4.686;2023-03-22T00:37:48;26.48;;;10.90;;
44139;SDS011;29803;51.048;4.686;2023-03-22T00:40:20;23.17;;;10.38;;
44139;SDS011;29803;51.048;4.686;2023-03-22T00:42:51;23.55;;;10.73;;
44139;SDS011;29803;51.048;4.686;2023-03-22T00:45:21;19.42;;;10.25;;
44139;SDS011;29803;51.048;4.686;2023-03-22T00:47:52;23.38;;;10.88;;
44139;SDS011;29803;51.048;4.686;2023-03-22T00:50:22;21.02;;;10.73;;
44139;SDS011;29803;51.048;4.686;2023-03-22T00:52:53;18.67;;;9.57;;
44139;SDS011;29803;51.048;4.686;2023-03-22T00:55:23;21.45;;;9.60;;
44139;SDS011;29803;51.048;4.686;2023-03-22T00:57:54;19.13;;;10.45;;
44139;SDS011;29803;51.048;4.686;2023-03-22T01:00:24;21.92;;;9.52;;
44139;SDS011;29803;51.048;4.686;2023-03-22T01:02:55;26.80;;;10.95;;
44139;SDS011;29803;51.048;4.686;2023-03-22T01:05:30;18.60;;;9.27;;
44139;SDS011;29803;51.048;4.686;2023-03-22T01:08:03;17.83;;;9.80;;
44139;SDS011;29803;51.048;4.686;2023-03-22T01:10:38;22.05;;;9.70;;
44139;SDS011;29803;51.048;4.686;2023-03-22T01:13:10;18.02;;;10.15;;
44139;SDS011;29803;51.048;4.686;2023-03-22T01:15:41;19.02;;;9.07;;
44139;SDS011;29803;51.048;4.686;2023-03-22T01:18:11;22.70;;;9.38;;
44139;SDS011;29803;51.048;4.686;2023-03-22T01:20:42;24.02;;;9.45;;
44139;SDS011;29803;51.048;4.686;2023-03-22T01:23:12;14.60;;;8.80;;
44139;SDS011;29803;51.048;4.686;2023-03-22T01:25:43;18.55;;;8.65;;
44139;SDS011;29803;51.048;4.686;2023-03-22T01:28:13;16.48;;;8.85;;
44139;SDS011;29803;51.048;4.686;2023-03-22T01:30:43;16.40;;;7.85;;
44139;SDS011;29803;51.048;4.686;2023-03-22T01:33:14;14.95;;;7.28;;
44139;SDS011;29803;51.048;4.686;2023-03-22T01:35:45;19.17;;;8.48;;
44139;SDS011;29803;51.048;4.686;2023-03-22T01:38:15;18.90;;;7.97;;
44139;SDS011;29803;51.048;4.686;2023-03-22T01:40:46;15.85;;;7.60;;
44139;SDS011;29803;51.048;4.686;2023-03-22T01:43:16;17.25;;;7.43;;
44139;SDS011;29803;51.048;4.686;2023-03-22T01:45:48;15.02;;;7.25;;
44139;SDS011;29803;51.048;4.686;2023-03-22T01:51:23;16.17;;;7.07;;
44139;SDS011;29803;51.048;4.686;2023-03-22T01:53:55;16.98;;;7.43;;
44139;SDS011;29803;51.048;4.686;2023-03-22T01:56:31;14.85;;;6.28;;
44139;SDS011;29803;51.048;4.686;2023-03-22T01:59:05;16.23;;;7.05;;
44139;SDS011;29803;51.048;4.686;2023-03-22T02:01:39;13.55;;;6.55;;
44139;SDS011;29803;51.048;4.686;2023-03-22T02:04:11;14.90;;;6.47;;
44139;SDS011;29803;51.048;4.686;2023-03-22T02:06:50;16.52;;;7.28;;
44139;SDS011;29803;51.048;4.686;2023-03-22T02:09:23;14.75;;;6.28;;
44139;SDS011;29803;51.048;4.686;2023-03-22T02:35:41;14.15;;;5.20;;
44139;SDS011;29803;51.048;4.686;2023-03-22T02:47:12;10.60;;;4.10;;
44139;SDS011;29803;51.048;4.686;2023-03-22T02:50:09;10.75;;;4.25;;
44139;SDS011;29803;51.048;4.686;2023-03-22T02:55:50;11.02;;;4.25;;
44139;SDS011;29803;51.048;4.686;2023-03-22T02:58:38;11.85;;;4.35;;
44139;SDS011;29803;51.048;4.686;2023-03-22T03:01:18;12.18;;;4.15;;
44139;SDS011;29803;51.048;4.686;2023-03-22T03:03:56;12.00;;;4.22;;
44139;SDS011;29803;51.048;4.686;2023-03-22T03:06:32;14.48;;;4.05;;
44139;SDS011;29803;51.048;4.686;2023-03-22T03:09:08;13.27;;;4.00;;
44139;SDS011;29803;51.048;4.686;2023-03-22T03:11:39;10.90;;;4.13;;
44139;SDS011;29803;51.048;4.686;2023-03-22T03:14:21;10.02;;;4.00;;
44139;SDS011;29803;51.048;4.686;2023-03-22T03:19:58;15.20;;;3.75;;
44139;SDS011;29803;51.048;4.686;2023-03-22T03:22:46;19.00;;;3.80;;
44139;SDS011;29803;51.048;4.686;2023-03-22T03:28:34;11.82;;;4.05;;
44139;SDS011;29803;51.048;4.686;2023-03-22T03:31:33;19.73;;;3.60;;
44139;SDS011;29803;51.048;4.686;2023-03-22T03:37:13;8.02;;;3.08;;
44139;SDS011;29803;51.048;4.686;2023-03-22T03:39:51;8.00;;;3.22;;
44139;SDS011;29803;51.048;4.686;2023-03-22T03:42:27;7.25;;;2.92;;
44139;SDS011;29803;51.048;4.686;2023-03-22T03:44:59;12.77;;;2.95;;
44139;SDS011;29803;51.048;4.686;2023-03-22T03:47:30;13.60;;;4.57;;
44139;SDS011;29803;51.048;4.686;2023-03-22T03:50:03;11.75;;;3.13;;
44139;SDS011;29803;51.048;4.686;2023-03-22T03:52:35;7.32;;;2.60;;
44139;SDS011;29803;51.048;4.686;2023-03-22T03:55:06;10.48;;;2.92;;
44139;SDS011;29803;51.048;4.686;2023-03-22T03:57:36;12.80;;;3.03;;
44139;SDS011;29803;51.048;4.686;2023-03-22T04:00:07;11.80;;;3.30;;
44139;SDS011;29803;51.048;4.686;2023-03-22T04:02:39;11.27;;;3.40;;
44139;SDS011;29803;51.048;4.686;2023-03-22T04:05:10;13.68;;;2.92;;
44139;SDS011;29803;51.048;4.686;2023-03-22T04:07:42;14.45;;;3.33;;
44139;SDS011;29803;51.048;4.686;2023-03-22T04:10:12;11.60;;;2.80;;
44139;SDS011;29803;51.048;4.686;2023-03-22T04:12:43;13.35;;;3.50;;
44139;SDS011;29803;51.048;4.686;2023-03-22T04:15:13;13.02;;;3.45;;
44139;SDS011;29803;51.048;4.686;2023-03-22T04:17:44;13.45;;;2.60;;
44139;SDS011;29803;51.048;4.686;2023-03-22T04:20:15;9.38;;;2.80;;
44139;SDS011;29803;51.048;4.686;2023-03-22T04:22:46;9.23;;;2.92;;
44139;SDS011;29803;51.048;4.686;2023-03-22T04:25:18;9.63;;;2.78;;
44139;SDS011;29803;51.048;4.686;2023-03-22T04:27:49;9.05;;;2.80;;
44139;SDS011;29803;51.048;4.686;2023-03-22T04:30:20;13.23;;;2.97;;
44139;SDS011;29803;51.048;4.686;2023-03-22T04:32:51;6.63;;;2.30;;
44139;SDS011;29803;51.048;4.686;2023-03-22T04:35:22;8.65;;;2.50;;
44139;SDS011;29803;51.048;4.686;2023-03-22T04:37:52;10.88;;;2.60;;
44139;SDS011;29803;51.048;4.686;2023-03-22T04:40:23;8.40;;;2.60;;
44139;SDS011;29803;51.048;4.686;2023-03-22T04:42:55;11.63;;;2.88;;
44139;SDS011;29803;51.048;4.686;2023-03-22T04:45:26;12.27;;;3.03;;
44139;SDS011;29803;51.048;4.686;2023-03-22T04:47:58;14.98;;;4.25;;
44139;SDS011;29803;51.048;4.686;2023-03-22T04:50:28;9.13;;;2.90;;
44139;SDS011;29803;51.048;4.686;2023-03-22T04:52:59;9.85;;;2.83;;
44139;SDS011;29803;51.048;4.686;2023-03-22T04:55:29;16.38;;;3.10;;
44139;SDS011;29803;51.048;4.686;2023-03-22T04:58:00;12.98;;;3.10;;
44139;SDS011;29803;51.048;4.686;2023-03-22T05:00:30;13.93;;;2.90;;
44139;SDS011;29803;51.048;4.686;2023-03-22T05:03:01;10.55;;;3.00;;
44139;SDS011;29803;51.048;4.686;2023-03-22T05:05:33;11.18;;;3.53;;
44139;SDS011;29803;51.048;4.686;2023-03-22T05:08:03;11.43;;;3.22;;
44139;SDS011;29803;51.048;4.686;2023-03-22T05:10:38;11.23;;;3.03;;
44139;SDS011;29803;51.048;4.686;2023-03-22T05:13:09;12.18;;;2.92;;
44139;SDS011;29803;51.048;4.686;2023-03-22T05:15:39;14.48;;;3.22;;
44139;SDS011;29803;51.048;4.686;2023-03-22T05:18:10;11.88;;;3.88;;
44139;SDS011;29803;51.048;4.686;2023-03-22T05:20:43;11.95;;;3.88;;
44139;SDS011;29803;51.048;4.686;2023-03-22T05:23:13;15.32;;;3.53;;
44139;SDS011;29803;51.048;4.686;2023-03-22T05:25:49;13.83;;;3.70;;
44139;SDS011;29803;51.048;4.686;2023-03-22T05:28:21;12.77;;;4.28;;
44139;SDS011;29803;51.048;4.686;2023-03-22T05:30:51;14.82;;;5.25;;
44139;SDS011;29803;51.048;4.686;2023-03-22T05:33:22;22.50;;;7.13;;
44139;SDS011;29803;51.048;4.686;2023-03-22T05:35:52;13.75;;;4.15;;
44139;SDS011;29803;51.048;4.686;2023-03-22T05:38:23;13.52;;;4.40;;
44139;SDS011;29803;51.048;4.686;2023-03-22T05:40:53;17.15;;;4.20;;
44139;SDS011;29803;51.048;4.686;2023-03-22T05:43:24;13.00;;;3.88;;
44139;SDS011;29803;51.048;4.686;2023-03-22T05:45:54;16.60;;;4.75;;
44139;SDS011;29803;51.048;4.686;2023-03-22T05:48:25;23.10;;;3.95;;
44139;SDS011;29803;51.048;4.686;2023-03-22T05:50:55;13.88;;;4.25;;
44139;SDS011;29803;51.048;4.686;2023-03-22T05:53:25;14.23;;;4.30;;
44139;SDS011;29803;51.048;4.686;2023-03-22T05:55:56;15.85;;;3.67;;
44139;SDS011;29803;51.048;4.686;2023-03-22T05:58:30;20.15;;;4.68;;
44139;SDS011;29803;51.048;4.686;2023-03-22T06:03:52;12.85;;;3.25;;
44139;SDS011;29803;51.048;4.686;2023-03-22T06:06:22;12.88;;;4.38;;
44139;SDS011;29803;51.048;4.686;2023-03-22T06:08:52;13.35;;;3.85;;
44139;SDS011;29803;51.048;4.686;2023-03-22T06:11:23;22.83;;;4.03;;
44139;SDS011;29803;51.048;4.686;2023-03-22T06:13:53;10.95;;;3.80;;
44139;SDS011;29803;51.048;4.686;2023-03-22T06:16:24;11.90;;;3.35;;
44139;SDS011;29803;51.048;4.686;2023-03-22T06:18:55;14.93;;;3.50;;
44139;SDS011;29803;51.048;4.686;2023-03-22T06:21:25;13.32;;;4.00;;
44139;SDS011;29803;51.048;4.686;2023-03-22T06:23:55;14.93;;;3.35;;
44139;SDS011;29803;51.048;4.686;2023-03-22T06:26:26;12.38;;;3.85;;
44139;SDS011;29803;51.048;4.686;2023-03-22T06:28:56;9.35;;;3.70;;
44139;SDS011;29803;51.048;4.686;2023-03-22T06:31:28;14.23;;;3.22;;
44139;SDS011;29803;51.048;4.686;2023-03-22T06:33:59;12.48;;;3.78;;
44139;SDS011;29803;51.048;4.686;2023-03-22T06:36:29;14.70;;;3.17;;
44139;SDS011;29803;51.048;4.686;2023-03-22T06:39:00;16.42;;;3.38;;
44139;SDS011;29803;51.048;4.686;2023-03-22T06:41:31;12.23;;;2.83;;
44139;SDS011;29803;51.048;4.686;2023-03-22T06:44:02;10.38;;;2.80;;
44139;SDS011;29803;51.048;4.686;2023-03-22T06:46:32;11.55;;;2.72;;
44139;SDS011;29803;51.048;4.686;2023-03-22T06:49:03;12.38;;;2.90;;
44139;SDS011;29803;51.048;4.686;2023-03-22T06:51:34;6.82;;;2.10;;
44139;SDS011;29803;51.048;4.686;2023-03-22T06:54:05;11.25;;;2.30;;
44139;SDS011;29803;51.048;4.686;2023-03-22T06:56:35;10.55;;;2.50;;
44139;SDS011;29803;51.048;4.686;2023-03-22T06:59:06;13.15;;;2.53;;
44139;SDS011;29803;51.048;4.686;2023-03-22T07:01:36;15.38;;;2.63;;
44139;SDS011;29803;51.048;4.686;2023-03-22T07:04:07;18.02;;;3.17;;
44139;SDS011;29803;51.048;4.686;2023-03-22T07:06:37;16.23;;;3.30;;
44139;SDS011;29803;51.048;4.686;2023-03-22T07:09:07;14.70;;;2.65;;
44139;SDS011;29803;51.048;4.686;2023-03-22T07:11:39;10.73;;;3.00;;
44139;SDS011;29803;51.048;4.686;2023-03-22T07:14:09;14.13;;;2.72;;
44139;SDS011;29803;51.048;4.686;2023-03-22T07:16:40;11.05;;;3.10;;
44139;SDS011;29803;51.048;4.686;2023-03-22T07:19:10;11.10;;;2.50;;
44139;SDS011;29803;51.048;4.686;2023-03-22T07:21:41;10.30;;;2.88;;
44139;SDS011;29803;51.048;4.686;2023-03-22T07:24:11;12.95;;;2.50;;
44139;SDS011;29803;51.048;4.686;2023-03-22T07:26:42;13.25;;;3.05;;
44139;SDS011;29803;51.048;4.686;2023-03-22T07:29:13;9.70;;;2.60;;
44139;SDS011;29803;51.048;4.686;2023-03-22T07:31:43;15.13;;;2.40;;
44139;SDS011;29803;51.048;4.686;2023-03-22T07:34:14;11.90;;;2.45;;
44139;SDS011;29803;51.048;4.686;2023-03-22T07:36:46;14.70;;;2.67;;
44139;SDS011;29803;51.048;4.686;2023-03-22T07:39:17;12.25;;;2.58;;
44139;SDS011;29803;51.048;4.686;2023-03-22T07:41:47;7.05;;;2.45;;
44139;SDS011;29803;51.048;4.686;2023-03-22T07:44:17;12.57;;;2.63;;
44139;SDS011;29803;51.048;4.686;2023-03-22T07:46:48;11.10;;;2.42;;
44139;SDS011;29803;51.048;4.686;2023-03-22T07:49:20;10.23;;;2.30;;
44139;SDS011;29803;51.048;4.686;2023-03-22T07:51:51;17.40;;;3.08;;
44139;SDS011;29803;51.048;4.686;2023-03-22T07:54:22;11.32;;;2.25;;
44139;SDS011;29803;51.048;4.686;2023-03-22T07:56:53;19.88;;;2.90;;
44139;SDS011;29803;51.048;4.686;2023-03-22T07:59:23;14.25;;;3.00;;
44139;SDS011;29803;51.048;4.686;2023-03-22T08:01:54;10.55;;;2.28;;
44139;SDS011;29803;51.048;4.686;2023-03-22T08:04:24;12.65;;;2.30;;
44139;SDS011;29803;51.048;4.686;2023-03-22T08:06:55;8.65;;;2.40;;
44139;SDS011;29803;51.048;4.686;2023-03-22T08:09:28;14.20;;;3.10;;
44139;SDS011;29803;51.048;4.686;2023-03-22T08:11:59;6.10;;;2.00;;
44139;SDS011;29803;51.048;4.686;2023-03-22T08:14:29;8.98;;;2.30;;
44139;SDS011;29803;51.048;4.686;2023-03-22T08:17:00;18.38;;;3.05;;
44139;SDS011;29803;51.048;4.686;2023-03-22T08:19:31;13.02;;;2.97;;
44139;SDS011;29803;51.048;4.686;2023-03-22T08:22:02;19.27;;;2.83;;
44139;SDS011;29803;51.048;4.686;2023-03-22T08:24:33;9.85;;;2.50;;
44139;SDS011;29803;51.048;4.686;2023-03-22T08:27:04;16.70;;;2.40;;
44139;SDS011;29803;51.048;4.686;2023-03-22T08:29:34;13.38;;;2.63;;
44139;SDS011;29803;51.048;4.686;2023-03-22T08:32:06;9.85;;;2.22;;
44139;SDS011;29803;51.048;4.686;2023-03-22T08:34:38;9.15;;;3.03;;
44139;SDS011;29803;51.048;4.686;2023-03-22T08:37:09;13.52;;;2.83;;
44139;SDS011;29803;51.048;4.686;2023-03-22T08:39:42;11.35;;;2.70;;
44139;SDS011;29803;51.048;4.686;2023-03-22T08:42:12;15.70;;;2.72;;
44139;SDS011;29803;51.048;4.686;2023-03-22T08:44:43;8.00;;;2.22;;
44139;SDS011;29803;51.048;4.686;2023-03-22T08:47:13;13.98;;;2.97;;
44139;SDS011;29803;51.048;4.686;2023-03-22T08:49:44;9.40;;;2.40;;
44139;SDS011;29803;51.048;4.686;2023-03-22T08:52:14;10.05;;;2.08;;
44139;SDS011;29803;51.048;4.686;2023-03-22T08:54:45;14.77;;;3.47;;
44139;SDS011;29803;51.048;4.686;2023-03-22T08:57:15;12.93;;;2.75;;
44139;SDS011;29803;51.048;4.686;2023-03-22T08:59:46;13.13;;;2.65;;
44139;SDS011;29803;51.048;4.686;2023-03-22T09:02:16;7.95;;;2.33;;
44139;SDS011;29803;51.048;4.686;2023-03-22T09:04:47;10.23;;;2.70;;
44139;SDS011;29803;51.048;4.686;2023-03-22T09:07:18;13.52;;;2.40;;
44139;SDS011;29803;51.048;4.686;2023-03-22T09:09:50;12.70;;;2.55;;
44139;SDS011;29803;51.048;4.686;2023-03-22T09:12:20;12.30;;;2.78;;
44139;SDS011;29803;51.048;4.686;2023-03-22T09:14:51;12.50;;;2.33;;
44139;SDS011;29803;51.048;4.686;2023-03-22T09:17:21;9.93;;;2.08;;
44139;SDS011;29803;51.048;4.686;2023-03-22T09:19:52;11.57;;;2.22;;
44139;SDS011;29803;51.048;4.686;2023-03-22T09:22:22;16.25;;;2.30;;
44139;SDS011;29803;51.048;4.686;2023-03-22T09:24:53;11.00;;;2.20;;
44139;SDS011;29803;51.048;4.686;2023-03-22T09:27:24;9.27;;;2.15;;
44139;SDS011;29803;51.048;4.686;2023-03-22T09:29:54;7.72;;;2.58;;
44139;SDS011;29803;51.048;4.686;2023-03-22T09:32:25;10.95;;;2.55;;
44139;SDS011;29803;51.048;4.686;2023-03-22T09:34:56;10.48;;;2.45;;
44139;SDS011;29803;51.048;4.686;2023-03-22T09:37:26;10.35;;;2.25;;
44139;SDS011;29803;51.048;4.686;2023-03-22T09:39:59;10.35;;;2.67;;
44139;SDS011;29803;51.048;4.686;2023-03-22T09:42:32;6.82;;;2.20;;
44139;SDS011;29803;51.048;4.686;2023-03-22T09:45:10;7.10;;;2.38;;
44139;SDS011;29803;51.048;4.686;2023-03-22T09:47:46;15.25;;;2.97;;
44139;SDS011;29803;51.048;4.686;2023-03-22T09:50:21;12.18;;;3.03;;
44139;SDS011;29803;51.048;4.686;2023-03-22T09:52:54;12.70;;;2.22;;
44139;SDS011;29803;51.048;4.686;2023-03-22T09:55:29;13.80;;;2.80;;
44139;SDS011;29803;51.048;4.686;2023-03-22T09:58:10;18.17;;;2.38;;
44139;SDS011;29803;51.048;4.686;2023-03-22T10:06:41;9.13;;;2.20;;
44139;SDS011;29803;51.048;4.686;2023-03-22T10:12:28;11.35;;;2.20;;
44139;SDS011;29803;51.048;4.686;2023-03-22T10:15:12;8.65;;;2.42;;
44139;SDS011;29803;51.048;4.686;2023-03-22T10:23:08;7.85;;;2.05;;
44139;SDS011;29803;51.048;4.686;2023-03-22T10:25:43;11.82;;;2.17;;
44139;SDS011;29803;51.048;4.686;2023-03-22T10:31:03;9.70;;;2.33;;
44139;SDS011;29803;51.048;4.686;2023-03-22T10:36:39;11.55;;;7.78;;
44139;SDS011;29803;51.048;4.686;2023-03-22T10:42:04;12.35;;;2.53;;
44139;SDS011;29803;51.048;4.686;2023-03-22T10:47:35;5.80;;;2.38;;
44139;SDS011;29803;51.048;4.686;2023-03-22T10:50:11;9.02;;;2.80;;
44139;SDS011;29803;51.048;4.686;2023-03-22T10:52:50;6.35;;;1.98;;
44139;SDS011;29803;51.048;4.686;2023-03-22T10:55:41;9.10;;;2.45;;
44139;SDS011;29803;51.048;4.686;2023-03-22T10:58:14;12.90;;;2.38;;
44139;SDS011;29803;51.048;4.686;2023-03-22T11:00:47;6.90;;;1.70;;
44139;SDS011;29803;51.048;4.686;2023-03-22T11:09:00;9.23;;;1.90;;
44139;SDS011;29803;51.048;4.686;2023-03-22T11:17:21;10.55;;;2.33;;
44139;SDS011;29803;51.048;4.686;2023-03-22T11:19:56;9.77;;;1.80;;
44139;SDS011;29803;51.048;4.686;2023-03-22T11:25:21;7.05;;;1.73;;
44139;SDS011;29803;51.048;4.686;2023-03-22T11:28:04;8.60;;;1.88;;
44139;SDS011;29803;51.048;4.686;2023-03-22T11:34:13;8.68;;;1.83;;
44139;SDS011;29803;51.048;4.686;2023-03-22T11:36:58;9.82;;;2.42;;
44139;SDS011;29803;51.048;4.686;2023-03-22T11:39:29;5.17;;;1.73;;
44139;SDS011;29803;51.048;4.686;2023-03-22T11:42:01;4.28;;;1.80;;
44139;SDS011;29803;51.048;4.686;2023-03-22T11:44:35;7.25;;;2.03;;
44139;SDS011;29803;51.048;4.686;2023-03-22T11:47:06;5.90;;;1.80;;
44139;SDS011;29803;51.048;4.686;2023-03-22T11:49:42;8.43;;;1.80;;
44139;SDS011;29803;51.048;4.686;2023-03-22T11:52:17;8.57;;;2.15;;
44139;SDS011;29803;51.048;4.686;2023-03-22T11:54:52;10.63;;;2.20;;
44139;SDS011;29803;51.048;4.686;2023-03-22T11:57:25;6.70;;;2.25;;
44139;SDS011;29803;51.048;4.686;2023-03-22T12:00:00;8.65;;;2.65;;
44139;SDS011;29803;51.048;4.686;2023-03-22T12:02:54;7.68;;;2.55;;
44139;SDS011;29803;51.048;4.686;2023-03-22T12:05:31;7.93;;;2.13;;
44139;SDS011;29803;51.048;4.686;2023-03-22T12:19:18;12.32;;;2.83;;
44139;SDS011;29803;51.048;4.686;2023-03-22T12:21:57;12.60;;;2.40;;
44139;SDS011;29803;51.048;4.686;2023-03-22T12:24:30;9.43;;;2.25;;
44139;SDS011;29803;51.048;4.686;2023-03-22T12:29:58;13.93;;;2.75;;
44139;SDS011;29803;51.048;4.686;2023-03-22T12:32:32;11.93;;;2.83;;
44139;SDS011;29803;51.048;4.686;2023-03-22T12:35:05;10.00;;;2.50;;
44139;SDS011;29803;51.048;4.686;2023-03-22T12:37:43;8.57;;;2.58;;
44139;SDS011;29803;51.048;4.686;2023-03-22T12:43:12;7.15;;;2.75;;
44139;SDS011;29803;51.048;4.686;2023-03-22T12:45:45;12.60;;;2.58;;
44139;SDS011;29803;51.048;4.686;2023-03-22T12:48:27;7.43;;;2.30;;
44139;SDS011;29803;51.048;4.686;2023-03-22T12:53:51;8.98;;;3.00;;
44139;SDS011;29803;51.048;4.686;2023-03-22T12:56:37;8.40;;;2.83;;
44139;SDS011;29803;51.048;4.686;2023-03-22T12:59:12;38.38;;;17.45;;
44139;SDS011;29803;51.048;4.686;2023-03-22T13:01:47;7.32;;;2.88;;
44139;SDS011;29803;51.048;4.686;2023-03-22T13:04:26;10.60;;;3.10;;
44139;SDS011;29803;51.048;4.686;2023-03-22T13:07:16;6.70;;;3.00;;
44139;SDS011;29803;51.048;4.686;2023-03-22T13:13:10;9.73;;;3.05;;
44139;SDS011;29803;51.048;4.686;2023-03-22T13:26:46;9.63;;;3.28;;
44139;SDS011;29803;51.048;4.686;2023-03-22T13:32:04;6.95;;;3.95;;
44139;SDS011;29803;51.048;4.686;2023-03-22T13:34:50;14.27;;;4.13;;
44139;SDS011;29803;51.048;4.686;2023-03-22T13:40:01;10.02;;;3.60;;
44139;SDS011;29803;51.048;4.686;2023-03-22T13:42:43;12.23;;;4.13;;
44139;SDS011;29803;51.048;4.686;2023-03-22T13:48:02;9.82;;;4.05;;
44139;SDS011;29803;51.048;4.686;2023-03-22T13:50:32;11.82;;;4.10;;
44139;SDS011;29803;51.048;4.686;2023-03-22T13:53:05;12.88;;;4.30;;
44139;SDS011;29803;51.048;4.686;2023-03-22T14:01:12;10.90;;;4.47;;
44139;SDS011;29803;51.048;4.686;2023-03-22T14:03:45;10.00;;;3.58;;
44139;SDS011;29803;51.048;4.686;2023-03-22T14:06:20;8.20;;;3.67;;
44139;SDS011;29803;51.048;4.686;2023-03-22T14:08:56;17.38;;;4.50;;
44139;SDS011;29803;51.048;4.686;2023-03-22T14:11:34;11.85;;;4.20;;
44139;SDS011;29803;51.048;4.686;2023-03-22T14:14:10;12.70;;;3.92;;
44139;SDS011;29803;51.048;4.686;2023-03-22T14:16:46;8.15;;;4.03;;
44139;SDS011;29803;51.048;4.686;2023-03-22T14:19:22;11.43;;;4.05;;
44139;SDS011;29803;51.048;4.686;2023-03-22T14:21:55;14.30;;;4.60;;
44139;SDS011;29803;51.048;4.686;2023-03-22T14:24:28;12.23;;;4.05;;
44139;SDS011;29803;51.048;4.686;2023-03-22T14:27:02;8.95;;;3.88;;
44139;SDS011;29803;51.048;4.686;2023-03-22T14:32:23;7.68;;;3.70;;
44139;SDS011;29803;51.048;4.686;2023-03-22T14:37:32;7.72;;;3.67;;
44139;SDS011;29803;51.048;4.686;2023-03-22T14:40:10;13.80;;;4.22;;
44139;SDS011;29803;51.048;4.686;2023-03-22T14:42:45;5.60;;;3.50;;
44139;SDS011;29803;51.048;4.686;2023-03-22T14:45:17;10.15;;;4.13;;
44139;SDS011;29803;51.048;4.686;2023-03-22T14:47:49;15.55;;;4.68;;
44139;SDS011;29803;51.048;4.686;2023-03-22T14:50:20;11.48;;;4.60;;
44139;SDS011;29803;51.048;4.686;2023-03-22T14:52:52;9.13;;;3.78;;
44139;SDS011;29803;51.048;4.686;2023-03-22T14:55:23;10.38;;;4.03;;
44139;SDS011;29803;51.048;4.686;2023-03-22T14:57:57;14.52;;;4.32;;
44139;SDS011;29803;51.048;4.686;2023-03-22T15:00:29;9.07;;;4.43;;
44139;SDS011;29803;51.048;4.686;2023-03-22T15:03:01;6.95;;;3.85;;
44139;SDS011;29803;51.048;4.686;2023-03-22T15:05:38;7.53;;;3.30;;
44139;SDS011;29803;51.048;4.686;2023-03-22T15:08:20;9.70;;;3.65;;
44139;SDS011;29803;51.048;4.686;2023-03-22T15:10:55;9.75;;;3.88;;
44139;SDS011;29803;51.048;4.686;2023-03-22T15:13:28;9.68;;;4.13;;
44139;SDS011;29803;51.048;4.686;2023-03-22T15:16:00;11.82;;;4.40;;
44139;SDS011;29803;51.048;4.686;2023-03-22T15:18:32;7.00;;;3.65;;
44139;SDS011;29803;51.048;4.686;2023-03-22T15:21:04;11.07;;;3.80;;
44139;SDS011;29803;51.048;4.686;2023-03-22T15:23:36;9.63;;;4.78;;
44139;SDS011;29803;51.048;4.686;2023-03-22T15:29:05;12.93;;;4.07;;
44139;SDS011;29803;51.048;4.686;2023-03-22T15:31:39;11.93;;;4.60;;
44139;SDS011;29803;51.048;4.686;2023-03-22T15:34:15;10.68;;;4.63;;
44139;SDS011;29803;51.048;4.686;2023-03-22T15:36:49;10.65;;;4.45;;
44139;SDS011;29803;51.048;4.686;2023-03-22T15:39:22;17.83;;;5.03;;
44139;SDS011;29803;51.048;4.686;2023-03-22T15:41:56;12.80;;;5.18;;
44139;SDS011;29803;51.048;4.686;2023-03-22T15:50:22;14.50;;;6.28;;
44139;SDS011;29803;51.048;4.686;2023-03-22T15:52:54;16.70;;;5.88;;
44139;SDS011;29803;51.048;4.686;2023-03-22T15:55:30;19.00;;;6.30;;
44139;SDS011;29803;51.048;4.686;2023-03-22T15:58:06;13.05;;;6.43;;
44139;SDS011;29803;51.048;4.686;2023-03-22T16:01:07;16.00;;;6.68;;
44139;SDS011;29803;51.048;4.686;2023-03-22T16:03:45;13.70;;;7.05;;
44139;SDS011;29803;51.048;4.686;2023-03-22T16:06:23;18.58;;;7.30;;
44139;SDS011;29803;51.048;4.686;2023-03-22T16:08:56;16.83;;;7.55;;
44139;SDS011;29803;51.048;4.686;2023-03-22T16:11:29;16.52;;;7.03;;
44139;SDS011;29803;51.048;4.686;2023-03-22T16:14:00;19.45;;;7.53;;
44139;SDS011;29803;51.048;4.686;2023-03-22T16:16:30;17.73;;;8.70;;
44139;SDS011;29803;51.048;4.686;2023-03-22T16:19:01;16.33;;;8.20;;
44139;SDS011;29803;51.048;4.686;2023-03-22T16:21:32;19.58;;;8.35;;
44139;SDS011;29803;51.048;4.686;2023-03-22T16:24:03;17.65;;;8.60;;
44139;SDS011;29803;51.048;4.686;2023-03-22T16:26:34;23.65;;;8.57;;
44139;SDS011;29803;51.048;4.686;2023-03-22T16:29:05;16.30;;;8.32;;
44139;SDS011;29803;51.048;4.686;2023-03-22T16:31:35;18.75;;;8.38;;
44139;SDS011;29803;51.048;4.686;2023-03-22T16:34:07;22.60;;;8.57;;
44139;SDS011;29803;51.048;4.686;2023-03-22T16:36:39;17.33;;;8.52;;
44139;SDS011;29803;51.048;4.686;2023-03-22T16:39:10;18.70;;;8.00;;
44139;SDS011;29803;51.048;4.686;2023-03-22T16:41:40;18.67;;;7.90;;
44139;SDS011;29803;51.048;4.686;2023-03-22T16:44:14;20.58;;;7.75;;
44139;SDS011;29803;51.048;4.686;2023-03-22T16:46:46;19.92;;;8.13;;
44139;SDS011;29803;51.048;4.686;2023-03-22T16:49:16;14.90;;;7.00;;
44139;SDS011;29803;51.048;4.686;2023-03-22T16:51:47;19.08;;;6.72;;
44139;SDS011;29803;51.048;4.686;2023-03-22T16:54:17;17.58;;;7.00;;
44139;SDS011;29803;51.048;4.686;2023-03-22T16:56:48;17.40;;;7.72;;
44139;SDS011;29803;51.048;4.686;2023-03-22T16:59:18;16.00;;;7.15;;
44139;SDS011;29803;51.048;4.686;2023-03-22T17:01:49;15.27;;;7.00;;
44139;SDS011;29803;51.048;4.686;2023-03-22T17:04:21;15.50;;;7.47;;
44139;SDS011;29803;51.048;4.686;2023-03-22T17:06:51;16.58;;;7.03;;
44139;SDS011;29803;51.048;4.686;2023-03-22T17:09:21;16.65;;;6.25;;
44139;SDS011;29803;51.048;4.686;2023-03-22T17:11:52;16.90;;;6.85;;
44139;SDS011;29803;51.048;4.686;2023-03-22T17:14:22;14.25;;;6.05;;
44139;SDS011;29803;51.048;4.686;2023-03-22T17:16:53;17.88;;;7.15;;
44139;SDS011;29803;51.048;4.686;2023-03-22T17:19:23;16.30;;;6.65;;
44139;SDS011;29803;51.048;4.686;2023-03-22T17:21:54;15.70;;;6.72;;
44139;SDS011;29803;51.048;4.686;2023-03-22T17:24:24;16.67;;;6.13;;
44139;SDS011;29803;51.048;4.686;2023-03-22T17:26:55;19.35;;;6.97;;
44139;SDS011;29803;51.048;4.686;2023-03-22T17:29:26;15.95;;;6.40;;
44139;SDS011;29803;51.048;4.686;2023-03-22T17:31:57;22.15;;;6.32;;
44139;SDS011;29803;51.048;4.686;2023-03-22T17:34:29;18.75;;;6.35;;
44139;SDS011;29803;51.048;4.686;2023-03-22T17:37:00;19.88;;;6.25;;
44139;SDS011;29803;51.048;4.686;2023-03-22T17:39:31;24.80;;;6.63;;
44139;SDS011;29803;51.048;4.686;2023-03-22T17:42:06;25.13;;;6.55;;
44139;SDS011;29803;51.048;4.686;2023-03-22T17:44:42;19.13;;;6.57;;